createdAt,value
2022-11-09T00:01:00.875Z,96432.63
2022-11-09T00:04:02.837Z,96431.19
2022-11-09T00:07:04.438Z,96435.72
2022-11-09T00:10:06.303Z,96428.19
2022-11-09T00:13:07.918Z,96442.94
2022-11-09T00:16:13.992Z,96443.59
2022-11-09T00:19:15.663Z,96440.16
2022-11-09T00:22:17.232Z,96439.38
2022-11-09T00:25:19.084Z,96453.03
2022-11-09T00:28:20.802Z,96449.69
2022-11-09T00:31:23.072Z,96464.56
2022-11-09T00:34:24.713Z,96466.00
2022-11-09T00:37:26.278Z,96458.13
2022-11-09T00:40:27.901Z,96464.31
2022-11-09T00:43:29.512Z,96472.50
2022-11-09T00:46:31.224Z,96486.25
2022-11-09T00:49:32.922Z,96488.56
2022-11-09T00:52:34.512Z,96503.75
2022-11-09T00:55:36.060Z,96501.09
2022-11-09T00:58:38.414Z,96490.00
2022-11-09T01:01:40.064Z,96515.97
2022-11-09T01:04:41.880Z,96517.81
2022-11-09T01:07:43.502Z,96499.00
2022-11-09T01:10:47.323Z,96510.28
2022-11-09T01:13:48.942Z,96514.16
2022-11-09T01:16:50.717Z,96514.69
2022-11-09T01:19:52.483Z,96521.69
2022-11-09T01:22:54.967Z,96512.16
2022-11-09T01:25:59.940Z,96526.22
2022-11-09T01:29:01.498Z,96519.25
2022-11-09T01:32:03.436Z,96517.28
2022-11-09T01:35:06.550Z,96507.88
2022-11-09T01:38:08.474Z,96501.66
2022-11-09T01:41:12.695Z,96503.44
2022-11-09T01:44:20.434Z,96526.59
2022-11-09T01:47:23.741Z,96519.91
2022-11-09T01:50:49.004Z,96529.00
2022-11-09T01:53:51.915Z,96554.84
2022-11-09T01:56:54.144Z,96543.75
2022-11-09T02:00:04.343Z,96527.91
2022-11-09T02:03:28.111Z,96518.13
2022-11-09T02:06:29.930Z,96540.94
2022-11-09T02:09:45.305Z,96527.22
2022-11-09T02:12:46.860Z,96530.84
2022-11-09T02:15:49.384Z,96545.19
2022-11-09T02:18:54.859Z,96544.97
2022-11-09T02:21:58.904Z,96562.88
2022-11-09T02:25:00.461Z,96549.19
2022-11-09T02:28:02.083Z,96579.66
2022-11-09T02:31:04.685Z,96552.13
2022-11-09T02:34:09.870Z,96578.88
2022-11-09T02:37:11.599Z,96566.97
2022-11-09T02:40:23.014Z,96571.63
2022-11-09T02:43:24.812Z,96589.91
2022-11-09T02:46:33.624Z,96604.31
2022-11-09T02:49:35.927Z,96610.16
2022-11-09T02:52:37.524Z,96612.34
2022-11-09T02:55:44.440Z,96620.31
2022-11-09T02:58:47.893Z,96622.97
2022-11-09T03:01:51.080Z,96623.19
2022-11-09T03:04:53.089Z,96638.78
2022-11-09T03:07:56.642Z,96631.31
2022-11-09T03:11:01.321Z,96639.16
2022-11-09T03:14:03.700Z,96644.69
2022-11-09T03:17:06.470Z,96646.00
2022-11-09T03:20:08.803Z,96652.41
2022-11-09T03:23:11.883Z,96657.06
2022-11-09T03:26:14.668Z,96649.56
2022-11-09T03:29:16.361Z,96652.84
2022-11-09T03:32:18.276Z,96656.00
2022-11-09T03:35:20.247Z,96665.16
2022-11-09T03:38:22.038Z,96663.25
2022-11-09T03:41:24.707Z,96662.50
2022-11-09T03:44:26.418Z,96671.09
2022-11-09T03:47:28.001Z,96675.19
2022-11-09T03:50:30.606Z,96689.00
2022-11-09T03:53:32.206Z,96689.50
2022-11-09T03:56:33.807Z,96702.66
2022-11-09T03:59:36.192Z,96697.03
2022-11-09T04:02:37.875Z,96699.31
2022-11-09T04:05:39.447Z,96697.56
2022-11-09T04:08:41.004Z,96717.13
2022-11-09T04:11:42.567Z,96702.63
2022-11-09T04:14:44.200Z,96704.50
2022-11-09T04:17:47.216Z,96720.28
2022-11-09T04:20:48.850Z,96714.31
2022-11-09T04:23:50.459Z,96721.56
2022-11-09T04:26:52.061Z,96728.88
2022-11-09T04:29:53.571Z,96730.72
2022-11-09T04:32:55.697Z,96724.31
2022-11-09T04:36:01.440Z,96741.50
2022-11-09T04:39:03.097Z,96740.53
2022-11-09T04:42:04.637Z,96741.47
2022-11-09T04:45:06.471Z,96748.66
2022-11-09T04:48:08.065Z,96757.84
2022-11-09T04:51:12.703Z,96766.09
2022-11-09T04:54:14.259Z,96765.16
2022-11-09T04:57:15.814Z,96775.47
2022-11-09T05:00:17.434Z,96769.25
2022-11-09T05:03:19.298Z,96782.84
2022-11-09T05:06:33.455Z,96778.75
2022-11-09T05:09:35.156Z,96777.47
2022-11-09T05:12:36.675Z,96792.94
2022-11-09T05:15:38.283Z,96795.91
2022-11-09T05:18:39.919Z,96797.19
2022-11-09T05:21:41.557Z,96796.72
2022-11-09T05:24:43.089Z,96792.84
2022-11-09T05:27:44.670Z,96805.41
2022-11-09T05:30:46.353Z,96796.31
2022-11-09T05:33:51.476Z,96807.56
2022-11-09T05:36:53.024Z,96800.38
2022-11-09T05:39:54.662Z,96803.06
2022-11-09T05:42:56.774Z,96808.41
2022-11-09T05:46:02.457Z,96805.31
2022-11-09T05:49:06.996Z,96806.53
2022-11-09T05:52:08.516Z,96809.81
2022-11-09T05:55:10.084Z,96813.72
2022-11-09T05:58:11.645Z,96823.69
2022-11-09T06:01:14.162Z,96830.72
2022-11-09T06:04:15.740Z,96833.56
2022-11-09T06:07:17.433Z,96832.13
2022-11-09T06:10:19.094Z,96831.66
2022-11-09T06:13:20.799Z,96846.19
2022-11-09T06:16:22.666Z,96848.16
2022-11-09T06:19:24.202Z,96854.09
2022-11-09T06:22:25.794Z,96873.13
2022-11-09T06:25:27.758Z,96872.38
2022-11-09T06:28:29.432Z,96868.16
2022-11-09T06:31:31.079Z,96880.34
2022-11-09T06:34:33.036Z,96873.34
2022-11-09T06:37:34.540Z,96869.91
2022-11-09T06:40:37.138Z,96877.28
2022-11-09T06:43:38.645Z,96880.28
2022-11-09T06:46:40.287Z,96881.84
2022-11-09T06:49:41.877Z,96888.56
2022-11-09T06:52:43.443Z,96889.31
2022-11-09T06:55:50.125Z,96875.75
2022-11-09T06:58:52.341Z,96881.84
2022-11-09T07:01:56.414Z,96888.53
2022-11-09T07:05:01.739Z,96886.22
2022-11-09T07:08:03.286Z,96889.63
2022-11-09T07:11:09.025Z,96910.25
2022-11-09T07:14:10.570Z,96908.69
2022-11-09T07:17:12.150Z,96914.47
2022-11-09T07:20:14.913Z,96922.44
2022-11-09T07:23:16.502Z,96930.88
2022-11-09T07:26:18.587Z,96940.56
2022-11-09T07:29:20.518Z,96939.63
2022-11-09T07:32:31.046Z,96946.50
2022-11-09T07:35:43.840Z,96954.78
2022-11-09T07:38:45.432Z,96954.78
2022-11-09T07:41:47.422Z,96958.81
2022-11-09T07:44:48.981Z,96960.88
2022-11-09T07:47:54.639Z,96970.84
2022-11-09T07:50:57.328Z,96972.88
2022-11-09T07:53:58.938Z,96976.63
2022-11-09T07:57:00.492Z,96986.13
2022-11-09T08:00:02.136Z,96995.66
2022-11-09T08:03:12.965Z,96997.34
2022-11-09T08:06:18.389Z,97000.00
2022-11-09T08:09:20.513Z,97009.97
2022-11-09T08:12:22.019Z,97016.03
2022-11-09T08:15:24.040Z,97025.91
2022-11-09T08:18:25.566Z,97027.44
2022-11-09T08:21:27.133Z,97026.84
2022-11-09T08:24:28.726Z,97028.22
2022-11-09T08:27:30.533Z,97032.16
2022-11-09T08:30:32.406Z,97034.31
2022-11-09T08:33:35.611Z,97047.44
2022-11-09T08:36:37.276Z,97053.56
2022-11-09T08:39:38.829Z,97061.53
2022-11-09T08:42:40.465Z,97058.72
2022-11-09T08:45:42.070Z,97060.34
2022-11-09T08:48:43.623Z,97060.50
2022-11-09T08:51:45.324Z,97070.03
2022-11-09T08:54:48.813Z,97077.41
2022-11-09T08:57:53.155Z,97073.34
2022-11-09T09:00:54.913Z,97071.81
2022-11-09T09:03:56.622Z,97088.03
2022-11-09T09:07:00.296Z,97079.94
2022-11-09T09:10:02.173Z,97088.38
2022-11-09T09:13:04.061Z,97090.09
2022-11-09T09:16:09.632Z,97086.03
2022-11-09T09:19:11.192Z,97096.50
2022-11-09T09:22:12.715Z,97102.31
2022-11-09T09:25:14.648Z,97114.16
2022-11-09T09:28:16.205Z,97105.88
2022-11-09T09:31:18.689Z,97120.28
2022-11-09T09:34:20.634Z,97116.06
2022-11-09T09:37:22.303Z,97115.75
2022-11-09T09:40:25.146Z,97131.53
2022-11-09T09:43:45.968Z,97130.91
2022-11-09T09:46:55.909Z,97133.88
2022-11-09T09:50:10.312Z,97134.19
2022-11-09T09:53:23.651Z,97134.84
2022-11-09T09:56:30.728Z,97138.56
2022-11-09T09:59:42.047Z,97155.47
2022-11-09T10:02:43.581Z,97162.84
2022-11-09T10:06:00.916Z,97160.81
2022-11-09T10:09:21.192Z,97167.69
2022-11-09T10:12:40.451Z,97176.78
2022-11-09T10:15:53.188Z,97187.72
2022-11-09T10:19:13.412Z,97188.34
2022-11-09T10:22:17.247Z,97188.03
2022-11-09T10:25:32.161Z,97192.88
2022-11-09T10:29:01.657Z,97198.38
2022-11-09T10:32:05.444Z,97216.53
2022-11-09T10:35:10.112Z,97210.09
2022-11-09T10:38:21.879Z,97213.38
2022-11-09T10:41:46.911Z,97207.44
2022-11-09T10:45:18.551Z,97213.69
2022-11-09T10:48:39.314Z,97231.22
2022-11-09T10:51:59.772Z,97221.38
2022-11-09T10:55:24.784Z,97215.72
2022-11-09T10:58:48.134Z,97234.97
2022-11-09T11:02:37.346Z,97235.63
2022-11-09T11:05:58.857Z,97241.13
2022-11-09T11:09:20.489Z,97238.97
2022-11-09T11:12:41.385Z,97250.81
2022-11-09T11:16:01.232Z,97262.31
2022-11-09T11:19:41.353Z,97263.78
2022-11-09T11:23:13.566Z,97273.94
2022-11-09T11:26:47.778Z,97267.47
2022-11-09T11:30:23.076Z,97260.44
2022-11-09T11:33:43.065Z,97250.72
2022-11-09T11:37:22.042Z,97254.09
2022-11-09T11:41:17.476Z,97259.19
2022-11-09T11:45:18.613Z,97260.00
2022-11-09T11:48:58.824Z,97264.00
2022-11-09T11:52:38.016Z,97281.78
2022-11-09T11:56:07.927Z,97298.97
2022-11-09T11:59:28.031Z,97298.94
2022-11-09T12:03:01.997Z,97297.28
2022-11-09T12:06:28.388Z,97298.00
2022-11-09T12:09:51.943Z,97311.38
2022-11-09T12:13:18.923Z,97299.63
2022-11-09T12:16:42.004Z,97321.75
2022-11-09T12:20:08.180Z,97325.31
2022-11-09T12:23:38.648Z,97338.94
2022-11-09T12:27:31.441Z,97329.91
2022-11-09T12:30:52.335Z,97335.91
2022-11-09T12:34:18.564Z,97346.09
2022-11-09T12:37:40.358Z,97334.56
2022-11-09T12:41:02.251Z,97347.56
2022-11-09T12:44:26.661Z,97349.84
2022-11-09T12:47:47.126Z,97355.97
2022-11-09T12:51:07.704Z,97348.50
2022-11-09T12:54:27.773Z,97361.25
2022-11-09T12:57:47.794Z,97364.44
2022-11-09T13:01:11.628Z,97365.53
2022-11-09T13:04:31.978Z,97380.81
2022-11-09T13:07:52.410Z,97377.50
2022-11-09T13:11:22.945Z,97388.00
2022-11-09T13:14:43.188Z,97376.59
2022-11-09T13:18:03.396Z,97388.47
2022-11-09T13:21:24.268Z,97392.63
2022-11-09T13:24:51.770Z,97395.94
2022-11-09T13:28:27.837Z,97400.97
2022-11-09T13:32:05.205Z,97409.22
2022-11-09T13:35:40.683Z,97398.25
2022-11-09T13:39:39.331Z,97404.63
2022-11-09T13:43:03.026Z,97435.31
2022-11-09T13:46:23.379Z,97439.63
2022-11-09T13:49:45.141Z,97448.94
2022-11-09T13:53:25.391Z,97444.50
2022-11-09T13:56:45.625Z,97440.13
2022-11-09T14:00:06.495Z,97455.16
2022-11-09T14:03:29.319Z,97468.44
2022-11-09T14:06:50.533Z,97454.03
2022-11-09T14:10:13.637Z,97452.63
2022-11-09T14:13:45.549Z,97457.97
2022-11-09T14:17:20.793Z,97461.72
2022-11-09T14:20:40.508Z,97457.22
2022-11-09T14:24:04.636Z,97460.34
2022-11-09T14:27:24.712Z,97471.34
2022-11-09T14:30:45.467Z,97465.56
2022-11-09T14:34:06.384Z,97474.75
2022-11-09T14:37:27.532Z,97477.03
2022-11-09T14:40:47.850Z,97481.88
2022-11-09T14:44:09.963Z,97498.28
2022-11-09T14:47:31.105Z,97495.94
2022-11-09T14:50:54.581Z,97500.00
2022-11-09T14:54:15.971Z,97502.34
2022-11-09T14:57:35.851Z,97502.25
2022-11-09T15:01:06.180Z,97501.34
2022-11-09T15:04:27.248Z,97508.66
2022-11-09T15:07:48.229Z,97523.94
2022-11-09T15:11:09.192Z,97545.78
2022-11-09T15:14:30.831Z,97537.53
2022-11-09T15:17:51.731Z,97545.88
2022-11-09T15:21:12.352Z,97543.63
2022-11-09T15:24:46.254Z,97544.25
2022-11-09T15:28:09.399Z,97567.03
2022-11-09T15:31:29.667Z,97572.59
2022-11-09T15:34:55.529Z,97565.19
2022-11-09T15:38:34.611Z,97559.84
2022-11-09T15:41:54.516Z,97571.84
2022-11-09T15:45:15.595Z,97576.88
2022-11-09T15:48:35.828Z,97571.97
2022-11-09T15:51:56.189Z,97582.19
2022-11-09T15:55:17.220Z,97584.66
2022-11-09T15:58:37.406Z,97593.09
2022-11-09T16:01:57.204Z,97589.53
2022-11-09T16:05:17.919Z,97602.56
2022-11-09T16:08:38.517Z,97618.09
2022-11-09T16:11:58.510Z,97626.97
2022-11-09T16:15:22.154Z,97650.56
2022-11-09T16:18:42.176Z,97654.69
2022-11-09T16:22:02.881Z,97649.78
2022-11-09T16:25:22.772Z,97646.72
2022-11-09T16:28:43.336Z,97661.69
2022-11-09T16:32:03.984Z,97656.28
2022-11-09T16:35:27.126Z,97660.91
2022-11-09T16:38:48.781Z,97668.88
2022-11-09T16:42:09.111Z,97663.03
2022-11-09T16:45:33.145Z,97671.63
2022-11-09T16:48:54.769Z,97663.44
2022-11-09T16:52:15.158Z,97670.44
2022-11-09T16:55:35.381Z,97690.00
2022-11-09T16:58:55.056Z,97696.00
2022-11-09T17:02:15.005Z,97705.06
2022-11-09T17:05:35.314Z,97715.69
2022-11-09T17:08:58.136Z,97720.50
2022-11-09T17:12:17.967Z,97711.16
2022-11-09T17:15:45.440Z,97722.19
2022-11-09T17:19:06.576Z,97710.97
2022-11-09T17:22:26.823Z,97716.88
2022-11-09T17:25:59.408Z,97713.44
2022-11-09T17:29:19.916Z,97706.03
2022-11-09T17:32:40.672Z,97703.69
2022-11-09T17:36:01.626Z,97711.75
2022-11-09T17:39:21.711Z,97707.63
2022-11-09T17:42:41.754Z,97728.78
2022-11-09T17:46:06.239Z,97743.44
2022-11-09T17:49:26.137Z,97751.31
2022-11-09T17:52:46.044Z,97739.31
2022-11-09T17:56:08.421Z,97739.22
2022-11-09T17:59:28.352Z,97731.84
2022-11-09T18:02:48.187Z,97721.22
2022-11-09T18:06:16.075Z,97719.44
2022-11-09T18:09:41.798Z,97737.63
2022-11-09T18:13:02.630Z,97716.28
2022-11-09T18:16:23.020Z,97750.06
2022-11-09T18:19:43.111Z,97743.84
2022-11-09T18:23:03.076Z,97761.44
2022-11-09T18:26:23.731Z,97762.91
2022-11-09T18:29:44.001Z,97774.47
2022-11-09T18:33:03.927Z,97772.69
2022-11-09T18:36:24.619Z,97774.03
2022-11-09T18:39:44.709Z,97780.06
2022-11-09T18:43:04.659Z,97779.56
2022-11-09T18:46:30.115Z,97789.50
2022-11-09T18:49:50.660Z,97798.88
2022-11-09T18:53:10.946Z,97797.59
2022-11-09T18:56:31.009Z,97801.13
2022-11-09T18:59:51.679Z,97802.41
2022-11-09T19:03:15.764Z,97792.66
2022-11-09T19:06:36.204Z,97813.34
2022-11-09T19:09:56.857Z,97826.56
2022-11-09T19:13:17.281Z,97815.34
2022-11-09T19:16:37.712Z,97827.56
2022-11-09T19:19:58.153Z,97804.47
2022-11-09T19:23:18.043Z,97794.16
2022-11-09T19:26:38.371Z,97792.16
2022-11-09T19:29:58.318Z,97820.44
2022-11-09T19:33:18.762Z,97820.03
2022-11-09T19:36:38.941Z,97829.78
2022-11-09T19:39:59.164Z,97822.69
2022-11-09T19:43:19.216Z,97819.84
2022-11-09T19:46:39.875Z,97812.06
2022-11-09T19:50:00.248Z,97822.03
2022-11-09T19:53:20.365Z,97829.91
2022-11-09T19:56:40.280Z,97842.91
2022-11-09T20:00:00.174Z,97847.53
2022-11-09T20:03:20.611Z,97835.63
2022-11-09T20:06:40.874Z,97851.88
2022-11-09T20:10:03.433Z,97852.66
2022-11-09T20:13:24.454Z,97847.53
2022-11-09T20:16:45.186Z,97844.19
2022-11-09T20:20:05.703Z,97845.38
2022-11-09T20:23:25.801Z,97855.41
2022-11-09T20:26:45.769Z,97832.94
2022-11-09T20:30:05.929Z,97829.69
2022-11-09T20:33:26.460Z,97838.44
2022-11-09T20:36:46.910Z,97859.94
2022-11-09T20:40:08.074Z,97846.63
2022-11-09T20:43:28.533Z,97853.91
2022-11-09T20:46:48.400Z,97871.03
2022-11-09T20:50:08.499Z,97864.94
2022-11-09T20:53:28.684Z,97838.69
2022-11-09T20:56:48.851Z,97834.63
2022-11-09T21:00:10.887Z,97836.63
2022-11-09T21:03:31.076Z,97831.41
2022-11-09T21:06:51.263Z,97826.28
2022-11-09T21:10:12.307Z,97828.03
2022-11-09T21:13:32.891Z,97834.44
2022-11-09T21:16:53.097Z,97840.88
2022-11-09T21:20:13.417Z,97841.97
2022-11-09T21:23:52.309Z,97857.94
2022-11-09T21:27:47.978Z,97860.88
2022-11-09T21:31:08.547Z,97856.44
2022-11-09T21:34:33.965Z,97842.66
2022-11-09T21:37:57.090Z,97853.41
2022-11-09T21:41:35.665Z,97859.97
2022-11-09T21:44:55.446Z,97857.63
2022-11-09T21:48:15.364Z,97858.00
2022-11-09T21:51:36.047Z,97863.41
2022-11-09T21:54:56.423Z,97872.19
2022-11-09T21:58:17.325Z,97870.97
2022-11-09T22:01:37.190Z,97873.53
2022-11-09T22:04:57.636Z,97879.22
2022-11-09T22:08:17.434Z,97881.28
2022-11-09T22:11:57.280Z,97881.97
2022-11-09T22:15:36.156Z,97870.81
2022-11-09T22:19:15.062Z,97865.19
2022-11-09T22:22:36.344Z,97862.81
2022-11-09T22:25:56.446Z,97857.31
2022-11-09T22:29:16.494Z,97859.69
2022-11-09T22:32:36.728Z,97843.22
2022-11-09T22:35:56.839Z,97859.84
2022-11-09T22:39:16.987Z,97851.56
2022-11-09T22:42:37.160Z,97841.50
2022-11-09T22:45:57.424Z,97827.72
2022-11-09T22:49:19.135Z,97845.75
2022-11-09T22:52:39.308Z,97831.69
2022-11-09T22:55:59.980Z,97842.84
2022-11-09T22:59:20.151Z,97833.78
2022-11-09T23:02:40.171Z,97828.44
2022-11-09T23:06:10.476Z,97837.03
2022-11-09T23:09:30.343Z,97832.34
2022-11-09T23:12:50.244Z,97834.38
2022-11-09T23:16:10.727Z,97848.19
2022-11-09T23:19:31.117Z,97842.22
2022-11-09T23:22:51.560Z,97855.44
2022-11-09T23:26:11.688Z,97859.56
2022-11-09T23:29:31.574Z,97855.97
2022-11-09T23:32:52.324Z,97853.41
2022-11-09T23:36:12.344Z,97868.75
2022-11-09T23:39:32.676Z,97856.88
2022-11-09T23:42:52.452Z,97871.16
2022-11-09T23:46:13.347Z,97869.06
2022-11-09T23:49:33.376Z,97889.16
2022-11-09T23:52:55.861Z,97870.03
2022-11-09T23:56:16.148Z,97894.53
2022-11-09T23:59:36.195Z,97870.06
